sensor_id;sensor_type;location;lat;lon;timestamp;temperature;humidity
19007;DHT22;9636;47.382;8.480;2023-05-20T00:01:44;18.40;99.90
19007;DHT22;9636;47.382;8.480;2023-05-20T00:04:11;18.40;99.90
19007;DHT22;9636;47.382;8.480;2023-05-20T00:06:37;18.30;99.90
19007;DHT22;9636;47.382;8.480;2023-05-20T00:09:04;18.30;99.90
19007;DHT22;9636;47.382;8.480;2023-05-20T00:11:31;18.30;99.90
19007;DHT22;9636;47.382;8.480;2023-05-20T00:13:59;18.30;99.90
19007;DHT22;9636;47.382;8.480;2023-05-20T00:16:26;18.30;99.90
19007;DHT22;9636;47.382;8.480;2023-05-20T00:18:53;18.20;99.90
19007;DHT22;9636;47.382;8.480;2023-05-20T00:21:21;18.20;99.90
19007;DHT22;9636;47.382;8.480;2023-05-20T00:23:47;18.20;99.90
19007;DHT22;9636;47.382;8.480;2023-05-20T00:26:14;18.20;99.90
19007;DHT22;9636;47.382;8.480;2023-05-20T00:28:41;18.20;99.90
19007;DHT22;9636;47.382;8.480;2023-05-20T00:31:10;18.20;99.90
19007;DHT22;9636;47.382;8.480;2023-05-20T00:33:37;18.20;99.90
19007;DHT22;9636;47.382;8.480;2023-05-20T00:36:05;18.10;99.90
19007;DHT22;9636;47.382;8.480;2023-05-20T00:38:32;18.10;99.90
19007;DHT22;9636;47.382;8.480;2023-05-20T00:40:59;18.10;99.90
19007;DHT22;9636;47.382;8.480;2023-05-20T00:43:26;18.10;99.90
19007;DHT22;9636;47.382;8.480;2023-05-20T00:45:53;18.10;99.90
19007;DHT22;9636;47.382;8.480;2023-05-20T00:48:21;18.10;99.90
19007;DHT22;9636;47.382;8.480;2023-05-20T00:50:49;18.10;99.90
19007;DHT22;9636;47.382;8.480;2023-05-20T00:53:16;18.00;99.90
19007;DHT22;9636;47.382;8.480;2023-05-20T00:55:43;18.00;99.90
19007;DHT22;9636;47.382;8.480;2023-05-20T00:58:10;18.00;99.90
19007;DHT22;9636;47.382;8.480;2023-05-20T01:00:38;17.90;99.90
19007;DHT22;9636;47.382;8.480;2023-05-20T01:03:05;18.00;99.90
19007;DHT22;9636;47.382;8.480;2023-05-20T01:05:33;17.90;99.90
19007;DHT22;9636;47.382;8.480;2023-05-20T01:08:00;17.90;99.90
19007;DHT22;9636;47.382;8.480;2023-05-20T01:10:27;17.90;99.90
19007;DHT22;9636;47.382;8.480;2023-05-20T01:12:58;17.80;99.90
19007;DHT22;9636;47.382;8.480;2023-05-20T01:15:26;17.80;99.90
19007;DHT22;9636;47.382;8.480;2023-05-20T01:17:57;17.80;99.90
19007;DHT22;9636;47.382;8.480;2023-05-20T01:20:27;17.80;99.90
19007;DHT22;9636;47.382;8.480;2023-05-20T01:22:58;17.80;99.90
19007;DHT22;9636;47.382;8.480;2023-05-20T01:25:25;17.80;99.90
19007;DHT22;9636;47.382;8.480;2023-05-20T01:27:53;17.70;99.90
19007;DHT22;9636;47.382;8.480;2023-05-20T01:30:21;17.70;99.90
19007;DHT22;9636;47.382;8.480;2023-05-20T01:32:51;17.70;99.90
19007;DHT22;9636;47.382;8.480;2023-05-20T01:35:19;17.70;99.90
19007;DHT22;9636;47.382;8.480;2023-05-20T01:37:49;17.60;99.90
19007;DHT22;9636;47.382;8.480;2023-05-20T01:40:19;17.60;99.90
19007;DHT22;9636;47.382;8.480;2023-05-20T01:42:46;17.60;99.90
19007;DHT22;9636;47.382;8.480;2023-05-20T01:45:17;17.60;99.90
19007;DHT22;9636;47.382;8.480;2023-05-20T01:47:44;17.60;99.90
19007;DHT22;9636;47.382;8.480;2023-05-20T01:50:11;17.60;99.90
19007;DHT22;9636;47.382;8.480;2023-05-20T01:52:38;17.50;99.90
19007;DHT22;9636;47.382;8.480;2023-05-20T01:55:05;17.50;99.90
19007;DHT22;9636;47.382;8.480;2023-05-20T01:57:33;17.50;99.90
19007;DHT22;9636;47.382;8.480;2023-05-20T02:00:00;17.50;99.90
19007;DHT22;9636;47.382;8.480;2023-05-20T02:02:28;17.40;99.90
19007;DHT22;9636;47.382;8.480;2023-05-20T02:04:54;17.40;99.90
19007;DHT22;9636;47.382;8.480;2023-05-20T02:07:21;17.40;99.90
19007;DHT22;9636;47.382;8.480;2023-05-20T02:09:48;17.40;99.90
19007;DHT22;9636;47.382;8.480;2023-05-20T02:12:15;17.40;99.90
19007;DHT22;9636;47.382;8.480;2023-05-20T02:14:43;17.30;99.90
19007;DHT22;9636;47.382;8.480;2023-05-20T02:17:10;17.30;99.90
19007;DHT22;9636;47.382;8.480;2023-05-20T02:19:39;17.30;99.90
19007;DHT22;9636;47.382;8.480;2023-05-20T02:22:05;17.30;99.90
19007;DHT22;9636;47.382;8.480;2023-05-20T02:24:32;17.20;99.90
19007;DHT22;9636;47.382;8.480;2023-05-20T02:26:59;17.20;99.90
19007;DHT22;9636;47.382;8.480;2023-05-20T02:29:27;17.20;99.90
19007;DHT22;9636;47.382;8.480;2023-05-20T02:31:55;17.20;99.90
19007;DHT22;9636;47.382;8.480;2023-05-20T02:34:22;17.10;99.90
19007;DHT22;9636;47.382;8.480;2023-05-20T02:36:50;17.10;99.90
19007;DHT22;9636;47.382;8.480;2023-05-20T02:39:17;17.10;99.90
19007;DHT22;9636;47.382;8.480;2023-05-20T02:41:44;17.10;99.90
19007;DHT22;9636;47.382;8.480;2023-05-20T02:44:10;17.10;99.90
19007;DHT22;9636;47.382;8.480;2023-05-20T02:46:37;17.00;99.90
19007;DHT22;9636;47.382;8.480;2023-05-20T02:49:05;17.00;99.90
19007;DHT22;9636;47.382;8.480;2023-05-20T02:51:32;17.00;99.90
19007;DHT22;9636;47.382;8.480;2023-05-20T02:53:59;17.00;99.90
19007;DHT22;9636;47.382;8.480;2023-05-20T02:56:26;17.00;99.90
19007;DHT22;9636;47.382;8.480;2023-05-20T02:58:53;16.90;99.90
19007;DHT22;9636;47.382;8.480;2023-05-20T03:01:20;16.90;99.90
19007;DHT22;9636;47.382;8.480;2023-05-20T03:03:47;16.90;99.90
19007;DHT22;9636;47.382;8.480;2023-05-20T03:06:16;16.90;99.90
19007;DHT22;9636;47.382;8.480;2023-05-20T03:08:42;16.80;99.90
19007;DHT22;9636;47.382;8.480;2023-05-20T03:11:09;16.80;99.90
19007;DHT22;9636;47.382;8.480;2023-05-20T03:13:36;16.80;99.90
19007;DHT22;9636;47.382;8.480;2023-05-20T03:16:03;16.80;99.90
19007;DHT22;9636;47.382;8.480;2023-05-20T03:18:30;16.80;99.90
19007;DHT22;9636;47.382;8.480;2023-05-20T03:20:57;16.70;99.90
19007;DHT22;9636;47.382;8.480;2023-05-20T03:23:25;16.70;99.90
19007;DHT22;9636;47.382;8.480;2023-05-20T03:25:52;16.70;99.90
19007;DHT22;9636;47.382;8.480;2023-05-20T03:28:19;16.70;99.90
19007;DHT22;9636;47.382;8.480;2023-05-20T03:30:46;16.70;99.90
19007;DHT22;9636;47.382;8.480;2023-05-20T03:33:13;16.60;99.90
19007;DHT22;9636;47.382;8.480;2023-05-20T03:35:40;16.60;99.90
19007;DHT22;9636;47.382;8.480;2023-05-20T03:38:07;16.60;99.90
19007;DHT22;9636;47.382;8.480;2023-05-20T03:40:35;16.60;99.90
19007;DHT22;9636;47.382;8.480;2023-05-20T03:43:02;16.60;99.90
19007;DHT22;9636;47.382;8.480;2023-05-20T03:45:29;16.60;99.90
19007;DHT22;9636;47.382;8.480;2023-05-20T03:47:58;16.50;99.90
19007;DHT22;9636;47.382;8.480;2023-05-20T03:50:24;16.50;99.90
19007;DHT22;9636;47.382;8.480;2023-05-20T03:52:51;16.50;99.90
19007;DHT22;9636;47.382;8.480;2023-05-20T03:55:18;16.50;99.90
19007;DHT22;9636;47.382;8.480;2023-05-20T03:57:47;16.40;99.90
19007;DHT22;9636;47.382;8.480;2023-05-20T04:00:14;16.40;99.90
19007;DHT22;9636;47.382;8.480;2023-05-20T04:02:41;16.40;99.90
19007;DHT22;9636;47.382;8.480;2023-05-20T04:05:08;16.40;99.90
19007;DHT22;9636;47.382;8.480;2023-05-20T04:07:36;16.40;99.90
19007;DHT22;9636;47.382;8.480;2023-05-20T04:10:04;16.40;99.90
19007;DHT22;9636;47.382;8.480;2023-05-20T04:12:31;16.40;99.90
19007;DHT22;9636;47.382;8.480;2023-05-20T04:15:02;16.40;99.90
19007;DHT22;9636;47.382;8.480;2023-05-20T04:17:29;16.40;99.90
19007;DHT22;9636;47.382;8.480;2023-05-20T04:19:56;16.40;99.90
19007;DHT22;9636;47.382;8.480;2023-05-20T04:22:24;16.40;99.90
19007;DHT22;9636;47.382;8.480;2023-05-20T04:24:51;16.40;99.90
19007;DHT22;9636;47.382;8.480;2023-05-20T04:27:17;16.40;99.90
19007;DHT22;9636;47.382;8.480;2023-05-20T04:29:45;16.40;99.90
19007;DHT22;9636;47.382;8.480;2023-05-20T04:32:17;16.40;99.90
19007;DHT22;9636;47.382;8.480;2023-05-20T04:34:44;16.40;99.90
19007;DHT22;9636;47.382;8.480;2023-05-20T04:37:11;16.40;99.90
19007;DHT22;9636;47.382;8.480;2023-05-20T04:39:38;16.40;99.90
19007;DHT22;9636;47.382;8.480;2023-05-20T04:42:05;16.40;99.90
19007;DHT22;9636;47.382;8.480;2023-05-20T04:44:31;16.40;99.90
19007;DHT22;9636;47.382;8.480;2023-05-20T04:46:58;16.40;99.90
19007;DHT22;9636;47.382;8.480;2023-05-20T04:49:27;16.40;99.90
19007;DHT22;9636;47.382;8.480;2023-05-20T04:51:54;16.40;99.90
19007;DHT22;9636;47.382;8.480;2023-05-20T04:54:21;16.40;99.90
19007;DHT22;9636;47.382;8.480;2023-05-20T04:56:48;16.40;99.90
19007;DHT22;9636;47.382;8.480;2023-05-20T04:59:15;16.40;99.90
19007;DHT22;9636;47.382;8.480;2023-05-20T05:01:42;16.50;99.90
19007;DHT22;9636;47.382;8.480;2023-05-20T05:04:09;16.50;99.90
19007;DHT22;9636;47.382;8.480;2023-05-20T05:06:37;16.50;99.90
19007;DHT22;9636;47.382;8.480;2023-05-20T05:09:04;16.50;99.90
19007;DHT22;9636;47.382;8.480;2023-05-20T05:11:32;16.50;99.90
19007;DHT22;9636;47.382;8.480;2023-05-20T05:13:59;16.50;99.90
19007;DHT22;9636;47.382;8.480;2023-05-20T05:16:26;16.60;99.90
19007;DHT22;9636;47.382;8.480;2023-05-20T05:18:53;16.60;99.90
19007;DHT22;9636;47.382;8.480;2023-05-20T05:21:19;16.60;99.90
19007;DHT22;9636;47.382;8.480;2023-05-20T05:23:47;16.60;99.90
19007;DHT22;9636;47.382;8.480;2023-05-20T05:26:14;16.70;99.90
19007;DHT22;9636;47.382;8.480;2023-05-20T05:28:43;16.70;99.90
19007;DHT22;9636;47.382;8.480;2023-05-20T05:31:10;16.70;99.90
19007;DHT22;9636;47.382;8.480;2023-05-20T05:33:37;16.70;99.90
19007;DHT22;9636;47.382;8.480;2023-05-20T05:36:04;16.80;99.90
19007;DHT22;9636;47.382;8.480;2023-05-20T05:38:31;16.80;99.90
19007;DHT22;9636;47.382;8.480;2023-05-20T05:40:59;16.80;99.90
19007;DHT22;9636;47.382;8.480;2023-05-20T05:43:26;16.80;99.90
19007;DHT22;9636;47.382;8.480;2023-05-20T05:45:53;16.80;99.90
19007;DHT22;9636;47.382;8.480;2023-05-20T05:48:20;16.80;99.90
19007;DHT22;9636;47.382;8.480;2023-05-20T05:50:47;16.90;99.90
19007;DHT22;9636;47.382;8.480;2023-05-20T05:53:14;16.90;99.90
19007;DHT22;9636;47.382;8.480;2023-05-20T05:55:41;16.90;99.90
19007;DHT22;9636;47.382;8.480;2023-05-20T05:58:09;16.90;99.90
19007;DHT22;9636;47.382;8.480;2023-05-20T06:00:35;16.90;99.90
19007;DHT22;9636;47.382;8.480;2023-05-20T06:03:02;17.00;99.90
19007;DHT22;9636;47.382;8.480;2023-05-20T06:05:30;17.00;99.90
19007;DHT22;9636;47.382;8.480;2023-05-20T06:07:57;17.00;99.90
19007;DHT22;9636;47.382;8.480;2023-05-20T06:10:23;17.00;99.90
19007;DHT22;9636;47.382;8.480;2023-05-20T06:12:50;17.10;99.90
19007;DHT22;9636;47.382;8.480;2023-05-20T06:15:18;17.10;99.90
19007;DHT22;9636;47.382;8.480;2023-05-20T06:17:45;17.20;99.90
19007;DHT22;9636;47.382;8.480;2023-05-20T06:20:12;17.20;99.90
19007;DHT22;9636;47.382;8.480;2023-05-20T06:22:39;17.30;99.90
19007;DHT22;9636;47.382;8.480;2023-05-20T06:25:07;17.30;99.90
19007;DHT22;9636;47.382;8.480;2023-05-20T06:27:34;17.40;99.90
19007;DHT22;9636;47.382;8.480;2023-05-20T06:30:01;17.40;99.90
19007;DHT22;9636;47.382;8.480;2023-05-20T06:32:29;17.50;99.90
19007;DHT22;9636;47.382;8.480;2023-05-20T06:34:56;17.50;99.90
19007;DHT22;9636;47.382;8.480;2023-05-20T06:37:23;17.60;99.90
19007;DHT22;9636;47.382;8.480;2023-05-20T06:39:51;17.70;99.90
19007;DHT22;9636;47.382;8.480;2023-05-20T06:42:21;17.70;99.90
19007;DHT22;9636;47.382;8.480;2023-05-20T06:44:48;17.70;99.90
19007;DHT22;9636;47.382;8.480;2023-05-20T06:47:16;17.70;99.90
19007;DHT22;9636;47.382;8.480;2023-05-20T06:49:44;17.80;99.90
19007;DHT22;9636;47.382;8.480;2023-05-20T06:52:11;17.80;99.90
19007;DHT22;9636;47.382;8.480;2023-05-20T06:54:38;17.80;99.90
19007;DHT22;9636;47.382;8.480;2023-05-20T06:57:06;17.80;99.90
19007;DHT22;9636;47.382;8.480;2023-05-20T06:59:33;17.80;99.90
19007;DHT22;9636;47.382;8.480;2023-05-20T07:02:00;17.80;99.90
19007;DHT22;9636;47.382;8.480;2023-05-20T07:04:26;17.80;99.90
19007;DHT22;9636;47.382;8.480;2023-05-20T07:06:55;17.80;99.90
19007;DHT22;9636;47.382;8.480;2023-05-20T07:09:21;17.90;99.90
19007;DHT22;9636;47.382;8.480;2023-05-20T07:11:48;17.90;99.90
19007;DHT22;9636;47.382;8.480;2023-05-20T07:14:15;17.90;99.90
19007;DHT22;9636;47.382;8.480;2023-05-20T07:16:50;18.00;99.90
19007;DHT22;9636;47.382;8.480;2023-05-20T07:19:17;18.00;99.90
19007;DHT22;9636;47.382;8.480;2023-05-20T07:21:44;18.10;99.90
19007;DHT22;9636;47.382;8.480;2023-05-20T07:24:17;18.20;99.90
19007;DHT22;9636;47.382;8.480;2023-05-20T07:26:50;18.20;99.90
19007;DHT22;9636;47.382;8.480;2023-05-20T07:29:18;18.20;99.90
19007;DHT22;9636;47.382;8.480;2023-05-20T07:31:47;18.30;99.90
19007;DHT22;9636;47.382;8.480;2023-05-20T07:34:15;18.30;99.90
19007;DHT22;9636;47.382;8.480;2023-05-20T07:36:50;18.40;99.90
19007;DHT22;9636;47.382;8.480;2023-05-20T07:39:21;18.40;99.90
19007;DHT22;9636;47.382;8.480;2023-05-20T07:41:48;18.50;99.90
19007;DHT22;9636;47.382;8.480;2023-05-20T07:44:15;18.50;99.90
19007;DHT22;9636;47.382;8.480;2023-05-20T07:46:46;18.60;99.90
19007;DHT22;9636;47.382;8.480;2023-05-20T07:52:34;18.70;99.90
19007;DHT22;9636;47.382;8.480;2023-05-20T07:55:04;18.70;99.90
19007;DHT22;9636;47.382;8.480;2023-05-20T07:57:34;18.80;99.90
19007;DHT22;9636;47.382;8.480;2023-05-20T08:00:01;18.80;99.90
19007;DHT22;9636;47.382;8.480;2023-05-20T08:02:39;18.90;99.90
19007;DHT22;9636;47.382;8.480;2023-05-20T08:05:09;19.00;99.90
19007;DHT22;9636;47.382;8.480;2023-05-20T08:07:39;19.00;99.90
19007;DHT22;9636;47.382;8.480;2023-05-20T08:10:08;19.10;99.90
19007;DHT22;9636;47.382;8.480;2023-05-20T08:12:37;19.10;99.90
19007;DHT22;9636;47.382;8.480;2023-05-20T08:15:08;19.10;99.90
19007;DHT22;9636;47.382;8.480;2023-05-20T08:17:35;19.10;99.90
19007;DHT22;9636;47.382;8.480;2023-05-20T08:20:04;19.20;99.90
19007;DHT22;9636;47.382;8.480;2023-05-20T08:22:34;19.20;99.90
19007;DHT22;9636;47.382;8.480;2023-05-20T08:28:25;19.40;99.90
19007;DHT22;9636;47.382;8.480;2023-05-20T08:31:47;19.50;99.90
19007;DHT22;9636;47.382;8.480;2023-05-20T08:57:45;19.70;99.90
19007;DHT22;9636;47.382;8.480;2023-05-20T09:00:24;19.70;99.90
19007;DHT22;9636;47.382;8.480;2023-05-20T09:03:07;19.70;99.90
19007;DHT22;9636;47.382;8.480;2023-05-20T09:05:52;19.60;99.90
19007;DHT22;9636;47.382;8.480;2023-05-20T09:08:24;19.60;99.90
19007;DHT22;9636;47.382;8.480;2023-05-20T09:10:55;19.70;99.90
19007;DHT22;9636;47.382;8.480;2023-05-20T09:13:28;19.80;99.90
19007;DHT22;9636;47.382;8.480;2023-05-20T09:15:58;19.90;99.90
19007;DHT22;9636;47.382;8.480;2023-05-20T09:18:47;19.90;99.90
19007;DHT22;9636;47.382;8.480;2023-05-20T09:21:25;20.00;99.90
19007;DHT22;9636;47.382;8.480;2023-05-20T09:23:52;20.00;99.90
19007;DHT22;9636;47.382;8.480;2023-05-20T09:26:22;20.10;99.90
19007;DHT22;9636;47.382;8.480;2023-05-20T09:28:51;20.00;99.90
19007;DHT22;9636;47.382;8.480;2023-05-20T09:31:18;20.00;99.90
19007;DHT22;9636;47.382;8.480;2023-05-20T09:33:45;20.00;99.90
19007;DHT22;9636;47.382;8.480;2023-05-20T09:36:12;20.20;99.90
19007;DHT22;9636;47.382;8.480;2023-05-20T09:38:40;20.30;99.90
19007;DHT22;9636;47.382;8.480;2023-05-20T09:41:10;20.30;99.90
19007;DHT22;9636;47.382;8.480;2023-05-20T09:43:38;20.40;99.90
19007;DHT22;9636;47.382;8.480;2023-05-20T09:46:07;20.30;99.90
19007;DHT22;9636;47.382;8.480;2023-05-20T09:48:35;20.50;99.90
19007;DHT22;9636;47.382;8.480;2023-05-20T09:51:03;20.60;99.90
19007;DHT22;9636;47.382;8.480;2023-05-20T09:53:30;20.80;99.90
19007;DHT22;9636;47.382;8.480;2023-05-20T09:55:57;20.90;99.90
19007;DHT22;9636;47.382;8.480;2023-05-20T09:58:24;21.00;99.90
19007;DHT22;9636;47.382;8.480;2023-05-20T10:00:51;21.20;99.90
19007;DHT22;9636;47.382;8.480;2023-05-20T10:03:21;21.40;99.90
19007;DHT22;9636;47.382;8.480;2023-05-20T10:05:54;21.30;99.90
19007;DHT22;9636;47.382;8.480;2023-05-20T15:47:38;25.20;97.00
19007;DHT22;9636;47.382;8.480;2023-05-20T15:50:51;25.10;97.20
19007;DHT22;9636;47.382;8.480;2023-05-20T16:21:53;24.90;97.10
19007;DHT22;9636;47.382;8.480;2023-05-20T16:24:36;24.90;97.30
19007;DHT22;9636;47.382;8.480;2023-05-20T16:27:03;24.90;97.30
19007;DHT22;9636;47.382;8.480;2023-05-20T16:29:32;24.90;97.40
19007;DHT22;9636;47.382;8.480;2023-05-20T16:31:59;24.90;97.50
19007;DHT22;9636;47.382;8.480;2023-05-20T19:15:00;22.70;99.50
19007;DHT22;9636;47.382;8.480;2023-05-20T19:17:27;22.70;99.40
19007;DHT22;9636;47.382;8.480;2023-05-20T19:19:53;22.70;99.50
19007;DHT22;9636;47.382;8.480;2023-05-20T19:22:20;22.60;99.50
19007;DHT22;9636;47.382;8.480;2023-05-20T19:24:47;22.60;99.50
19007;DHT22;9636;47.382;8.480;2023-05-20T19:27:14;22.50;99.50
19007;DHT22;9636;47.382;8.480;2023-05-20T19:29:41;22.50;99.50
19007;DHT22;9636;47.382;8.480;2023-05-20T19:32:09;22.50;99.60
19007;DHT22;9636;47.382;8.480;2023-05-20T19:34:36;22.50;99.70
19007;DHT22;9636;47.382;8.480;2023-05-20T19:37:03;22.40;99.70
19007;DHT22;9636;47.382;8.480;2023-05-20T19:39:30;22.40;99.70
19007;DHT22;9636;47.382;8.480;2023-05-20T19:41:58;22.30;99.70
19007;DHT22;9636;47.382;8.480;2023-05-20T19:55:07;22.20;99.90
19007;DHT22;9636;47.382;8.480;2023-05-20T19:57:34;22.20;99.90
19007;DHT22;9636;47.382;8.480;2023-05-20T20:00:01;22.20;99.90
19007;DHT22;9636;47.382;8.480;2023-05-20T20:02:28;22.10;99.90
19007;DHT22;9636;47.382;8.480;2023-05-20T20:04:55;22.10;99.90
19007;DHT22;9636;47.382;8.480;2023-05-20T20:07:49;22.00;99.90
19007;DHT22;9636;47.382;8.480;2023-05-20T20:10:37;22.00;99.90
19007;DHT22;9636;47.382;8.480;2023-05-20T20:18:09;21.90;99.90
19007;DHT22;9636;47.382;8.480;2023-05-20T20:21:11;21.90;99.90
19007;DHT22;9636;47.382;8.480;2023-05-20T20:23:46;21.80;99.90
19007;DHT22;9636;47.382;8.480;2023-05-20T20:26:17;21.80;99.90
19007;DHT22;9636;47.382;8.480;2023-05-20T20:28:50;21.80;99.90
19007;DHT22;9636;47.382;8.480;2023-05-20T20:31:17;21.80;99.90
19007;DHT22;9636;47.382;8.480;2023-05-20T20:33:57;21.70;99.90
19007;DHT22;9636;47.382;8.480;2023-05-20T20:36:24;21.70;99.90
19007;DHT22;9636;47.382;8.480;2023-05-20T20:38:56;21.70;99.90
19007;DHT22;9636;47.382;8.480;2023-05-20T20:41:31;21.60;99.90
19007;DHT22;9636;47.382;8.480;2023-05-20T20:44:00;21.60;99.90
19007;DHT22;9636;47.382;8.480;2023-05-20T20:46:30;21.60;99.90
19007;DHT22;9636;47.382;8.480;2023-05-20T20:49:01;21.60;99.90
19007;DHT22;9636;47.382;8.480;2023-05-20T20:51:28;21.50;99.90
19007;DHT22;9636;47.382;8.480;2023-05-20T20:54:09;21.50;99.90
19007;DHT22;9636;47.382;8.480;2023-05-20T20:56:37;21.50;99.90
19007;DHT22;9636;47.382;8.480;2023-05-20T20:59:06;21.40;99.90
19007;DHT22;9636;47.382;8.480;2023-05-20T21:01:36;21.40;99.90
19007;DHT22;9636;47.382;8.480;2023-05-20T21:04:06;21.40;99.90
19007;DHT22;9636;47.382;8.480;2023-05-20T21:06:38;21.30;99.90
19007;DHT22;9636;47.382;8.480;2023-05-20T21:09:06;21.30;99.90
19007;DHT22;9636;47.382;8.480;2023-05-20T21:11:36;21.30;99.90
19007;DHT22;9636;47.382;8.480;2023-05-20T21:14:06;21.20;99.90
19007;DHT22;9636;47.382;8.480;2023-05-20T21:16:33;21.20;99.90
19007;DHT22;9636;47.382;8.480;2023-05-20T21:19:00;21.20;99.90
19007;DHT22;9636;47.382;8.480;2023-05-20T21:21:27;21.10;99.90
19007;DHT22;9636;47.382;8.480;2023-05-20T21:23:55;21.10;99.90
19007;DHT22;9636;47.382;8.480;2023-05-20T21:26:22;21.10;99.90
19007;DHT22;9636;47.382;8.480;2023-05-20T21:29:12;21.00;99.90
19007;DHT22;9636;47.382;8.480;2023-05-20T21:32:12;21.00;99.90
19007;DHT22;9636;47.382;8.480;2023-05-20T21:34:39;21.00;99.90
19007;DHT22;9636;47.382;8.480;2023-05-20T21:37:06;20.90;99.90
19007;DHT22;9636;47.382;8.480;2023-05-20T21:39:38;20.90;99.90
19007;DHT22;9636;47.382;8.480;2023-05-20T21:42:06;20.90;99.90
19007;DHT22;9636;47.382;8.480;2023-05-20T21:44:34;20.90;99.90
19007;DHT22;9636;47.382;8.480;2023-05-20T21:47:05;20.80;99.90
19007;DHT22;9636;47.382;8.480;2023-05-20T21:49:51;20.80;99.90
19007;DHT22;9636;47.382;8.480;2023-05-20T21:52:29;20.80;99.90
19007;DHT22;9636;47.382;8.480;2023-05-20T21:54:55;20.80;99.90
19007;DHT22;9636;47.382;8.480;2023-05-20T21:57:24;20.80;99.90
19007;DHT22;9636;47.382;8.480;2023-05-20T21:59:53;20.80;99.90
19007;DHT22;9636;47.382;8.480;2023-05-20T22:02:19;20.70;99.90
19007;DHT22;9636;47.382;8.480;2023-05-20T22:05:15;20.70;99.90
19007;DHT22;9636;47.382;8.480;2023-05-20T22:07:56;20.60;99.90
19007;DHT22;9636;47.382;8.480;2023-05-20T22:10:24;20.60;99.90
19007;DHT22;9636;47.382;8.480;2023-05-20T22:13:01;20.60;99.90
19007;DHT22;9636;47.382;8.480;2023-05-20T22:15:33;20.60;99.90
19007;DHT22;9636;47.382;8.480;2023-05-20T22:18:02;20.50;99.90
19007;DHT22;9636;47.382;8.480;2023-05-20T22:20:31;20.50;99.90
19007;DHT22;9636;47.382;8.480;2023-05-20T22:23:02;20.50;99.90
19007;DHT22;9636;47.382;8.480;2023-05-20T22:25:29;20.50;99.90
19007;DHT22;9636;47.382;8.480;2023-05-20T22:27:56;20.50;99.90
19007;DHT22;9636;47.382;8.480;2023-05-20T22:30:31;20.40;99.90
19007;DHT22;9636;47.382;8.480;2023-05-20T22:33:00;20.40;99.90
19007;DHT22;9636;47.382;8.480;2023-05-20T22:35:30;20.40;99.90
19007;DHT22;9636;47.382;8.480;2023-05-20T22:37:58;20.30;99.90
19007;DHT22;9636;47.382;8.480;2023-05-20T22:40:26;20.40;99.90
19007;DHT22;9636;47.382;8.480;2023-05-20T22:42:53;20.30;99.90
19007;DHT22;9636;47.382;8.480;2023-05-20T22:45:20;20.30;99.90
19007;DHT22;9636;47.382;8.480;2023-05-20T22:47:53;20.30;99.90
19007;DHT22;9636;47.382;8.480;2023-05-20T22:50:22;20.20;99.90
19007;DHT22;9636;47.382;8.480;2023-05-20T22:52:52;20.20;99.90
19007;DHT22;9636;47.382;8.480;2023-05-20T22:55:23;20.20;99.90
19007;DHT22;9636;47.382;8.480;2023-05-20T22:58:04;20.10;99.90
19007;DHT22;9636;47.382;8.480;2023-05-20T23:00:41;20.10;99.90
19007;DHT22;9636;47.382;8.480;2023-05-20T23:03:16;20.10;99.90
19007;DHT22;9636;47.382;8.480;2023-05-20T23:05:46;20.10;99.90
19007;DHT22;9636;47.382;8.480;2023-05-20T23:08:17;20.10;99.90
19007;DHT22;9636;47.382;8.480;2023-05-20T23:10:44;20.00;99.90
19007;DHT22;9636;47.382;8.480;2023-05-20T23:13:17;20.00;99.90
19007;DHT22;9636;47.382;8.480;2023-05-20T23:15:44;20.00;99.90
19007;DHT22;9636;47.382;8.480;2023-05-20T23:18:20;19.90;99.90
19007;DHT22;9636;47.382;8.480;2023-05-20T23:20:47;19.90;99.90
19007;DHT22;9636;47.382;8.480;2023-05-20T23:23:24;19.90;99.90
19007;DHT22;9636;47.382;8.480;2023-05-20T23:25:51;19.90;99.90
19007;DHT22;9636;47.382;8.480;2023-05-20T23:28:21;19.90;99.90
19007;DHT22;9636;47.382;8.480;2023-05-20T23:30:55;19.80;99.90
19007;DHT22;9636;47.382;8.480;2023-05-20T23:33:25;19.80;99.90
19007;DHT22;9636;47.382;8.480;2023-05-20T23:35:57;19.80;99.90
19007;DHT22;9636;47.382;8.480;2023-05-20T23:38:24;19.80;99.90
19007;DHT22;9636;47.382;8.480;2023-05-20T23:40:53;19.80;99.90
19007;DHT22;9636;47.382;8.480;2023-05-20T23:43:23;19.70;99.90
19007;DHT22;9636;47.382;8.480;2023-05-20T23:45:50;19.70;99.90
19007;DHT22;9636;47.382;8.480;2023-05-20T23:48:18;19.70;99.90
19007;DHT22;9636;47.382;8.480;2023-05-20T23:50:51;19.60;99.90
19007;DHT22;9636;47.382;8.480;2023-05-20T23:53:19;19.60;99.90
19007;DHT22;9636;47.382;8.480;2023-05-20T23:55:48;19.60;99.90
19007;DHT22;9636;47.382;8.480;2023-05-20T23:58:15;19.60;99.90
